Time;durP1;ratioP1;P1;durP2;ratioP2;P2;SDS_P1;SDS_P2;PMS_P1;PMS_P2;Temp;Humidity;BMP_temperature;BMP_pressure;BME280_temperature;BME280_humidity;BME280_pressure;Samples;Min_cycle;Max_cycle;Signal;HPM_P1;HPM_P2
2022/12/19 00:01:20;;;;;;;75.10;33.50;;;;;;;5.35;98.81;98707.88;5006610;28;20420;-59
2022/12/19 00:03:55;;;;;;;43.08;18.95;;;;;;;5.26;99.98;98693.16;5006197;28;20063;-58
2022/12/19 00:06:23;;;;;;;44.50;18.85;;;;;;;5.38;99.52;98707.28;5006114;28;20405;-59
2022/12/19 00:08:51;;;;;;;85.72;33.42;;;;;;;5.45;99.22;98707.72;5006200;28;20574;-58
2022/12/19 00:11:19;;;;;;;155.80;55.22;;;;;;;5.03;99.40;98661.06;5006254;28;20517;-58
2022/12/19 00:13:46;;;;;;;49.15;19.65;;;;;;;5.35;100.00;98713.38;5005779;28;20076;-55
2022/12/19 00:16:24;;;;;;;54.53;21.60;;;;;;;4.83;100.00;98680.53;5005644;28;20521;-55
2022/12/19 00:18:53;;;;;;;39.78;16.40;;;;;;;5.10;100.00;98721.94;5006771;28;20080;-60
2022/12/19 00:21:23;;;;;;;37.47;16.55;;;;;;;4.73;100.00;98672.44;5006876;28;20049;-61
2022/12/19 00:23:51;;;;;;;58.92;25.08;;;;;;;5.02;100.00;98717.09;5006218;28;20418;-61
2022/12/19 00:26:24;;;;;;;46.55;20.73;;;;;;;4.62;100.00;98647.84;5004624;28;20049;-55
2022/12/19 00:28:57;;;;;;;42.40;20.42;;;;;;;4.72;100.00;98670.78;5006160;28;20184;-56
2022/12/19 00:31:25;;;;;;;47.83;22.10;;;;;;;5.14;100.00;98728.50;5004318;28;20049;-60
2022/12/19 00:33:52;;;;;;;39.90;17.15;;;;;;;4.99;100.00;98731.41;5004554;28;20046;-55
2022/12/19 00:36:24;;;;;;;39.78;16.85;;;;;;;4.83;99.52;98733.53;5005884;28;20136;-56
2022/12/19 00:38:53;;;;;;;37.03;15.88;;;;;;;4.46;96.57;98714.16;5006000;28;20581;-60
2022/12/19 00:41:27;;;;;;;32.33;15.77;;;;;;;4.09;94.76;98692.88;5005966;28;20156;-60
2022/12/19 00:44:03;;;;;;;37.83;16.58;;;;;;;4.47;95.10;98749.53;5006394;28;20073;-60
2022/12/19 00:46:31;;;;;;;29.40;12.90;;;;;;;4.35;96.60;98753.78;5005776;28;20142;-59
2022/12/19 00:48:58;;;;;;;29.67;13.48;;;;;;;4.06;98.11;98706.34;5005630;28;20132;-55
2022/12/19 00:51:28;;;;;;;38.60;14.73;;;;;;;4.25;96.08;98754.69;5005732;28;20086;-56
2022/12/19 00:53:56;;;;;;;33.47;14.98;;;;;;;4.24;97.82;98753.06;5005788;28;20498;-56
2022/12/19 00:56:26;;;;;;;26.80;12.75;;;;;;;4.26;97.42;98750.03;5005465;28;20064;-60
2022/12/19 00:58:54;;;;;;;33.00;14.70;;;;;;;4.32;96.67;98760.66;5004608;28;20104;-60
2022/12/19 01:01:23;;;;;;;34.80;15.00;;;;;;;4.34;97.25;98752.97;5005641;28;20088;-60
2022/12/19 01:03:50;;;;;;;38.17;15.95;;;;;;;4.41;95.75;98758.94;5005900;28;20575;-56
2022/12/19 01:06:37;;;;;;;33.60;16.20;;;;;;;4.12;94.69;98706.00;5004398;28;20428;-60
2022/12/19 01:09:08;;;;;;;38.33;16.65;;;;;;;4.37;96.87;98743.34;5004200;28;20141;-60
2022/12/19 01:14:20;;;;;;;36.53;16.60;;;;;;;4.20;97.28;98741.03;5004943;28;20349;-60
2022/12/19 01:16:49;;;;;;;35.03;15.98;;;;;;;4.31;98.33;98748.06;5004602;28;20066;-59
2022/12/19 01:19:16;;;;;;;33.50;16.27;;;;;;;4.35;96.08;98743.63;5005187;28;20050;-56
2022/12/19 01:21:42;;;;;;;35.65;17.15;;;;;;;3.83;95.58;98641.28;5005346;28;20153;-56
2022/12/19 01:24:10;;;;;;;28.73;12.95;;;;;;;4.32;94.26;98743.38;5005275;28;21495;-59
2022/12/19 01:26:36;;;;;;;34.55;13.85;;;;;;;4.32;95.07;98722.28;5005268;28;20103;-60
2022/12/19 01:29:03;;;;;;;27.67;12.95;;;;;;;4.39;94.44;98739.19;4985831;28;20137;-56
2022/12/19 01:31:32;;;;;;;29.58;12.95;;;;;;;4.20;89.53;98738.31;4985158;28;20058;-60
2022/12/19 01:33:59;;;;;;;28.20;13.07;;;;;;;4.21;87.75;98734.44;4983925;28;20082;-59
2022/12/19 01:36:27;;;;;;;30.30;13.98;;;;;;;4.33;88.71;98750.53;4984996;28;20141;-56
2022/12/19 01:38:56;;;;;;;24.50;11.88;;;;;;;4.34;85.99;98755.72;4985491;28;20112;-60
2022/12/19 01:41:23;;;;;;;29.05;12.82;;;;;;;4.35;86.01;98746.38;4985143;28;20148;-55
2022/12/19 01:44:08;;;;;;;30.67;12.88;;;;;;;4.45;84.59;98753.69;4983908;28;20504;-55
2022/12/19 01:46:39;;;;;;;27.73;11.40;;;;;;;4.51;84.50;98736.91;4983134;28;20108;-55
2022/12/19 01:49:17;;;;;;;25.65;12.27;;;;;;;4.57;83.50;98749.44;4985173;28;20050;-59
2022/12/19 01:51:50;;;;;;;24.70;12.50;;;;;;;4.65;82.43;98754.31;4984917;28;20054;-56
2022/12/19 01:54:21;;;;;;;26.05;12.65;;;;;;;4.10;82.51;98667.09;4985002;28;20116;-55
2022/12/19 01:56:52;;;;;;;24.45;11.90;;;;;;;4.38;83.63;98703.81;4984927;28;20565;-60
2022/12/19 01:59:20;;;;;;;28.13;12.93;;;;;;;4.87;84.93;98750.25;4985568;28;20070;-60
2022/12/19 02:01:54;;;;;;;28.98;13.63;;;;;;;4.86;86.86;98754.06;4985311;28;20078;-57
2022/12/19 02:04:23;;;;;;;;;;;;;;;4.97;86.99;98741.88;4985611;28;20085;-60
2022/12/19 02:06:54;;;;;;;26.60;11.93;;;;;;;5.01;87.84;98745.69;4984998;28;19929;-60
2022/12/19 02:09:24;;;;;;;31.42;13.10;;;;;;;4.39;88.62;98645.91;4985025;28;20492;-57
2022/12/19 02:11:51;;;;;;;29.30;13.70;;;;;;;5.11;88.08;98751.03;4984802;28;20053;-56
2022/12/19 02:14:18;;;;;;;32.55;14.15;;;;;;;5.08;89.81;98757.13;4982880;28;20065;-60
2022/12/19 02:17:06;;;;;;;30.00;13.27;;;;;;;5.23;89.31;98762.44;4983965;28;20069;-55
2022/12/19 02:20:21;;;;;;;26.92;12.90;;;;;;;5.24;89.18;98759.41;4984609;28;20101;-57
2022/12/19 02:22:59;;;;;;;28.58;12.82;;;;;;;5.22;88.16;98763.53;5001122;28;20061;-57
2022/12/19 02:25:49;;;;;;;28.15;12.93;;;;;;;5.28;89.17;98776.13;5000848;28;20087;-60
2022/12/19 02:28:45;;;;;;;28.40;13.07;;;;;;;5.19;89.81;98780.59;5001262;28;20360;-60
2022/12/19 02:31:29;;;;;;;29.83;13.57;;;;;;;4.97;87.92;98774.81;5004277;28;20045;-60
2022/12/19 02:34:14;;;;;;;30.73;14.00;;;;;;;4.93;90.49;98757.31;5004025;28;20046;-60
2022/12/19 02:36:50;;;;;;;30.60;13.75;;;;;;;4.81;90.81;98723.94;5003739;28;20570;-60
2022/12/19 02:39:26;;;;;;;30.60;14.73;;;;;;;5.07;88.90;98774.72;5003965;28;20144;-56
2022/12/19 02:41:57;;;;;;;29.65;13.60;;;;;;;5.19;86.36;98780.59;5003888;28;20081;-60
2022/12/19 02:44:35;;;;;;;30.08;13.77;;;;;;;5.13;86.00;98781.78;5004460;28;20057;-55
2022/12/19 02:47:04;;;;;;;32.33;15.02;;;;;;;5.17;86.30;98783.63;5004044;28;20054;-60
2022/12/19 02:49:36;;;;;;;28.02;13.70;;;;;;;5.16;83.44;98770.19;5004217;28;20140;-59
2022/12/19 02:52:18;;;;;;;28.52;12.75;;;;;;;5.21;82.38;98770.97;5004059;28;20820;-60
2022/12/19 02:54:50;;;;;;;29.60;12.90;;;;;;;4.35;78.57;98697.00;5003771;28;20135;-57
2022/12/19 02:57:54;;;;;;;26.98;12.20;;;;;;;4.94;79.99;98778.16;5004113;28;20095;-56
2022/12/19 03:00:24;;;;;;;28.27;12.55;;;;;;;4.94;80.40;98775.41;5003726;28;20120;-56
2022/12/19 03:03:08;;;;;;;31.92;13.48;;;;;;;4.99;81.06;98780.84;5002633;28;20150;-60
2022/12/19 03:06:01;;;;;;;27.73;12.98;;;;;;;5.05;81.98;98785.16;5004334;28;20049;-56
2022/12/19 03:08:49;;;;;;;29.38;13.30;;;;;;;5.06;81.91;98782.13;5002592;28;20050;-60
2022/12/19 03:11:16;;;;;;;27.48;11.95;;;;;;;4.94;82.59;98769.91;5002651;28;20111;-60
2022/12/19 03:14:06;;;;;;;25.80;12.52;;;;;;;4.63;83.27;98786.72;5004322;28;20115;-56
2022/12/19 03:16:35;;;;;;;26.10;12.05;;;;;;;4.51;86.18;98780.81;5003560;28;20058;-55
2022/12/19 03:19:03;;;;;;;29.90;12.45;;;;;;;4.31;88.94;98791.13;5002312;28;20497;-60
2022/12/19 03:21:37;;;;;;;27.50;12.75;;;;;;;4.36;89.56;98788.34;5003998;28;20105;-55
2022/12/19 03:24:06;;;;;;;29.10;12.85;;;;;;;4.15;90.63;98869.97;5003773;28;20052;-59
2022/12/19 03:26:41;;;;;;;27.92;12.68;;;;;;;3.86;91.96;98795.03;5004791;28;20065;-60
2022/12/19 03:29:16;;;;;;;31.88;13.90;;;;;;;3.72;95.81;98799.50;5007178;28;20525;-55
2022/12/19 03:31:45;;;;;;;25.33;13.07;;;;;;;3.60;99.08;98785.34;5005669;28;20084;-57
2022/12/19 03:34:23;;;;;;;33.90;13.05;;;;;;;3.89;98.64;98810.91;5022101;28;20119;-55
2022/12/19 03:36:57;;;;;;;32.58;12.85;;;;;;;3.99;100.00;98808.09;5005786;28;20049;-59
2022/12/19 03:39:27;;;;;;;32.50;14.23;;;;;;;3.68;100.00;98751.88;5007176;28;20088;-60
2022/12/19 03:44:41;;;;;;;31.35;14.40;;;;;;;4.17;100.00;98812.91;5007326;28;20060;-56
2022/12/19 03:47:25;;;;;;;35.45;14.68;;;;;;;3.66;100.00;98765.03;5007139;28;20064;-55
2022/12/19 03:49:51;;;;;;;31.77;14.60;;;;;;;4.12;100.00;98821.19;5007080;28;20541;-60
2022/12/19 03:52:18;;;;;;;36.85;15.55;;;;;;;4.11;100.00;98808.56;5007054;28;20144;-60
2022/12/19 03:54:59;;;;;;;34.30;15.55;;;;;;;4.15;100.00;98806.91;5006747;28;20057;-60
2022/12/19 03:57:35;;;;;;;33.30;15.48;;;;;;;4.30;100.00;98809.50;5006681;28;20050;-60
2022/12/19 04:00:09;;;;;;;35.22;15.27;;;;;;;4.36;100.00;98813.84;5006749;28;20161;-60
2022/12/19 04:02:39;;;;;;;34.13;15.75;;;;;;;3.86;100.00;98756.66;5021993;28;20053;-60
2022/12/19 04:05:14;;;;;;;36.35;15.18;;;;;;;4.30;100.00;98812.25;5006675;28;20060;-57
2022/12/19 04:07:41;;;;;;;36.70;16.50;;;;;;;3.74;100.00;98720.59;5006862;28;20089;-59
2022/12/19 04:10:13;;;;;;;36.95;16.52;;;;;;;4.35;100.00;98814.97;5006264;28;20050;-60
2022/12/19 04:12:55;;;;;;;36.92;15.93;;;;;;;1.53;100.00;98349.91;5021837;28;20058;-56
2022/12/19 04:15:38;;;;;;;35.28;16.95;;;;;;;4.08;100.00;98831.06;5006838;28;20148;-60
2022/12/19 04:18:08;;;;;;;37.88;16.98;;;;;;;4.12;100.00;98832.16;5021468;28;20053;-60
2022/12/19 04:20:39;;;;;;;36.25;15.35;;;;;;;4.17;100.00;98829.34;5006215;28;20124;-60
2022/12/19 04:23:13;;;;;;;36.25;16.17;;;;;;;3.99;100.00;98827.28;5006338;28;20077;-58
2022/12/19 04:25:44;;;;;;;35.15;15.65;;;;;;;4.08;100.00;98844.78;5005988;28;20141;-61
2022/12/19 04:28:21;;;;;;;34.83;16.05;;;;;;;3.99;100.00;98843.75;5021137;28;20053;-56
2022/12/19 04:30:48;;;;;;;35.00;14.95;;;;;;;3.59;100.00;98854.13;5006355;28;20132;-55
2022/12/19 04:33:15;;;;;;;36.63;16.10;;;;;;;3.64;100.00;98811.06;5006031;28;20448;-56
2022/12/19 04:35:42;;;;;;;33.95;15.20;;;;;;;3.60;100.00;98851.09;5005533;28;20100;-55
2022/12/19 04:38:08;;;;;;;39.22;16.02;;;;;;;3.25;100.00;98875.88;5005804;28;20061;-60
2022/12/19 04:40:35;;;;;;;38.75;16.55;;;;;;;3.43;100.00;98867.03;5005570;28;20112;-56
2022/12/19 04:43:07;;;;;;;38.67;16.90;;;;;;;3.20;100.00;98872.31;5006069;28;20061;-56
2022/12/19 04:45:34;;;;;;;42.40;18.10;;;;;;;2.62;100.00;98816.34;5004454;28;20077;-59
2022/12/19 04:48:02;;;;;;;42.65;18.10;;;;;;;2.78;100.00;98787.88;5005820;28;21068;-54
2022/12/19 04:50:28;;;;;;;40.63;18.02;;;;;;;3.28;100.00;98826.03;5005732;28;20096;-55
2022/12/19 04:52:59;;;;;;;41.35;18.23;;;;;;;3.67;100.00;98900.94;5006205;28;20065;-60
2022/12/19 04:55:25;;;;;;;38.35;17.73;;;;;;;3.78;100.00;98891.56;5004226;28;20413;-55
2022/12/19 04:57:52;;;;;;;40.45;17.42;;;;;;;3.79;100.00;98893.22;5005863;28;20890;-55
2022/12/19 05:00:19;;;;;;;35.63;16.63;;;;;;;3.85;100.00;98894.00;5005609;28;20046;-56
2022/12/19 05:02:45;;;;;;;38.33;17.00;;;;;;;3.92;100.00;98898.06;5005438;28;20697;-55
2022/12/19 05:05:12;;;;;;;43.72;18.85;;;;;;;3.87;100.00;98889.84;5004156;28;20081;-55
2022/12/19 05:07:39;;;;;;;44.42;20.30;;;;;;;4.11;100.00;98901.78;5005217;28;20145;-59
2022/12/19 05:10:06;;;;;;;37.97;16.45;;;;;;;3.80;100.00;98897.59;5005270;28;20145;-59
2022/12/19 05:12:33;;;;;;;38.40;16.45;;;;;;;3.90;100.00;98900.28;5005312;28;20065;-59
2022/12/19 05:15:00;;;;;;;47.88;22.75;;;;;;;4.13;100.00;98901.50;5005470;28;20579;-55
2022/12/19 05:17:26;;;;;;;42.53;19.05;;;;;;;4.02;100.00;98881.56;5004739;28;20149;-55
2022/12/19 05:19:53;;;;;;;47.97;22.08;;;;;;;4.09;100.00;98898.53;5005417;28;20593;-54
2022/12/19 05:22:20;;;;;;;42.50;19.55;;;;;;;3.91;100.00;98852.56;5005562;28;20410;-59
2022/12/19 05:24:46;;;;;;;41.45;19.67;;;;;;;4.19;100.00;98909.44;5005413;28;20477;-58
2022/12/19 05:27:13;;;;;;;38.85;19.00;;;;;;;4.22;100.00;98919.81;5005031;28;20119;-56
2022/12/19 05:29:39;;;;;;;40.20;17.55;;;;;;;4.24;100.00;98909.41;5004779;28;20042;-59
2022/12/19 05:32:06;;;;;;;37.55;16.45;;;;;;;4.11;100.00;98906.47;5004828;28;20679;-55
2022/12/19 05:34:33;;;;;;;42.78;18.30;;;;;;;4.07;100.00;98905.38;5004762;28;20148;-55
2022/12/19 05:37:01;;;;;;;41.08;17.98;;;;;;;4.20;100.00;98919.31;5004923;28;20084;-59
2022/12/19 05:39:29;;;;;;;34.72;16.20;;;;;;;4.18;100.00;98907.81;5004926;28;20058;-60
2022/12/19 05:41:55;;;;;;;35.42;16.45;;;;;;;4.18;98.20;98899.56;5004584;28;20140;-61
2022/12/19 05:44:23;;;;;;;34.22;14.20;;;;;;;4.29;92.21;98930.50;5019899;28;20057;-55
2022/12/19 05:46:50;;;;;;;32.40;15.27;;;;;;;4.21;90.89;98923.69;5020056;28;20052;-59
2022/12/19 05:49:16;;;;;;;37.58;18.02;;;;;;;4.24;89.00;98939.56;5001578;28;20592;-60
2022/12/19 05:51:43;;;;;;;33.75;16.70;;;;;;;4.25;88.57;98929.44;5039223;28;20053;-55
2022/12/19 05:54:09;;;;;;;38.63;18.33;;;;;;;4.28;87.83;98935.16;5024244;28;20562;-58
2022/12/19 05:56:36;;;;;;;39.80;18.70;;;;;;;4.32;86.10;98936.22;5024450;28;20076;-59
2022/12/19 05:59:03;;;;;;;33.38;16.15;;;;;;;4.33;85.95;98932.38;4994861;28;20054;-59
2022/12/19 06:01:31;;;;;;;31.05;14.35;;;;;;;4.09;79.89;98942.41;4984842;28;20085;-59
2022/12/19 06:03:57;;;;;;;33.95;14.13;;;;;;;3.83;80.53;98909.88;4984989;28;20049;-55
2022/12/19 06:06:25;;;;;;;31.27;13.73;;;;;;;4.18;82.53;98951.69;4983112;28;20058;-55
2022/12/19 06:08:56;;;;;;;30.33;13.45;;;;;;;4.19;82.95;98947.81;4984925;28;20112;-55
2022/12/19 06:11:23;;;;;;;38.80;16.00;;;;;;;4.29;83.39;98957.91;4984722;28;20050;-62
2022/12/19 06:13:50;;;;;;;30.52;14.38;;;;;;;4.31;83.25;98967.53;4984950;28;20460;-59
2022/12/19 06:16:19;;;;;;;31.17;15.63;;;;;;;4.21;83.33;98940.13;4983906;28;20058;-54
2022/12/19 06:18:46;;;;;;;33.90;16.10;;;;;;;4.25;82.17;98965.88;4984125;28;20058;-55
2022/12/19 06:21:17;;;;;;;38.78;19.08;;;;;;;4.38;81.74;98973.50;4984676;28;20053;-59
2022/12/19 06:23:44;;;;;;;33.78;16.13;;;;;;;4.31;81.78;98956.56;4985229;28;20140;-55
2022/12/19 06:26:13;;;;;;;39.50;17.73;;;;;;;4.26;82.72;98931.88;4985261;28;20046;-60
2022/12/19 06:28:46;;;;;;;52.95;23.55;;;;;;;4.50;79.25;98973.97;5015824;28;20061;-57
2022/12/19 06:31:13;;;;;;;36.80;18.60;;;;;;;4.49;78.92;98975.06;5039164;28;20053;-60
2022/12/19 06:33:40;;;;;;;34.75;15.93;;;;;;;4.47;75.86;98987.44;5024366;28;20114;-60
2022/12/19 06:36:12;;;;;;;33.90;17.65;;;;;;;4.43;77.94;98995.41;5038939;28;20129;-55
2022/12/19 06:38:39;;;;;;;38.15;17.08;;;;;;;4.51;77.43;98983.84;5024196;28;20053;-56
2022/12/19 06:43:51;;;;;;;34.50;15.93;;;;;;;4.33;76.67;99014.69;5023934;28;20067;-55
2022/12/19 06:46:19;;;;;;;36.22;16.73;;;;;;;4.26;77.77;99010.59;5024011;28;20140;-56
2022/12/19 06:48:46;;;;;;;31.63;14.40;;;;;;;4.30;76.22;99004.25;5023843;28;20531;-56
2022/12/19 06:51:13;;;;;;;29.95;15.65;;;;;;;4.24;76.79;98999.09;5023689;28;20499;-60
2022/12/19 06:53:40;;;;;;;39.10;18.27;;;;;;;4.36;77.83;99003.13;5038914;28;20045;-59
2022/12/19 06:56:07;;;;;;;32.30;14.15;;;;;;;4.24;75.55;99010.88;5023512;28;20053;-55
2022/12/19 06:58:34;;;;;;;35.75;15.50;;;;;;;4.24;76.67;99016.38;5023403;28;20589;-57
2022/12/19 07:01:00;;;;;;;36.45;15.98;;;;;;;3.77;76.19;98943.91;5025184;28;20050;-55
2022/12/19 07:03:37;;;;;;;29.48;13.13;;;;;;;3.63;78.06;98953.84;5042611;28;20064;-60
2022/12/19 07:06:05;;;;;;;37.22;17.73;;;;;;;4.24;79.24;99021.03;5027359;28;20049;-59
2022/12/19 07:08:31;;;;;;;41.15;18.17;;;;;;;4.44;77.96;99023.69;5027326;28;20501;-54
2022/12/19 07:10:58;;;;;;;38.55;18.20;;;;;;;3.83;77.04;98971.03;5027397;28;20483;-60
2022/12/19 07:13:26;;;;;;;38.97;17.65;;;;;;;4.28;77.62;99022.91;5004742;28;20480;-59
2022/12/19 07:15:58;;;;;;;38.63;17.17;;;;;;;4.51;77.21;99027.75;5005249;28;20445;-58
2022/12/19 07:18:26;;;;;;;36.55;16.20;;;;;;;3.48;76.05;98830.63;5007099;28;20475;-60
2022/12/19 07:20:52;;;;;;;30.35;13.18;;;;;;;4.02;73.05;98947.38;4998120;28;20536;-59
2022/12/19 07:23:21;;;;;;;31.02;14.48;;;;;;;4.10;76.75;98979.69;4988036;28;20058;-57
2022/12/19 07:25:47;;;;;;;36.67;17.23;;;;;;;4.73;76.78;99034.78;4988228;28;20074;-61
2022/12/19 07:28:15;;;;;;;31.85;15.45;;;;;;;4.81;73.62;99037.72;4989751;28;20135;-58
2022/12/19 07:30:42;;;;;;;37.42;16.25;;;;;;;3.90;74.83;98933.19;5012366;28;20049;-61
2022/12/19 07:33:08;;;;;;;35.50;16.75;;;;;;;4.74;75.63;99033.66;5005612;28;20122;-62
2022/12/19 07:35:38;;;;;;;36.92;16.08;;;;;;;5.04;74.80;99027.97;5005452;28;20141;-61
2022/12/19 07:38:06;;;;;;;37.53;15.60;;;;;;;4.44;73.66;98928.47;5006275;28;20065;-59
2022/12/19 07:40:34;;;;;;;34.25;16.15;;;;;;;4.26;74.15;98885.25;5006348;28;20497;-60
2022/12/19 07:43:05;;;;;;;31.63;14.35;;;;;;;5.38;73.23;99037.84;5004939;28;20128;-63
2022/12/19 07:45:32;;;;;;;31.40;13.82;;;;;;;5.35;71.78;99041.16;5006489;28;20529;-56
2022/12/19 07:48:02;;;;;;;27.45;12.80;;;;;;;5.29;70.74;99033.25;4989321;28;20528;-61
2022/12/19 07:50:29;;;;;;;35.53;14.88;;;;;;;5.22;73.13;99066.56;4984941;28;20062;-63
2022/12/19 07:52:57;;;;;;;34.13;14.88;;;;;;;5.50;72.91;99034.72;4994487;28;20512;-62
2022/12/19 07:55:24;;;;;;;37.08;17.27;;;;;;;5.54;70.96;99042.09;5005460;28;20172;-57
2022/12/19 07:57:52;;;;;;;30.15;13.13;;;;;;;5.18;68.21;99031.69;4989147;28;20085;-60
2022/12/19 08:00:19;;;;;;;23.80;11.98;;;;;;;5.24;69.85;99030.53;4999977;28;20049;-58
2022/12/19 08:02:46;;;;;;;26.02;12.65;;;;;;;5.23;68.83;99050.91;5005311;28;20042;-63
2022/12/19 08:05:13;;;;;;;21.67;10.35;;;;;;;5.31;67.17;99064.03;4998580;28;20042;-58
2022/12/19 08:07:40;;;;;;;25.27;12.50;;;;;;;4.75;68.82;99000.44;5000719;28;20128;-58
2022/12/19 08:10:07;;;;;;;23.17;11.45;;;;;;;5.44;70.56;99063.34;5001668;28;20064;-65
2022/12/19 08:12:34;;;;;;;26.95;12.30;;;;;;;5.05;72.58;99054.31;5002423;28;20069;-62
2022/12/19 08:15:00;;;;;;;26.02;11.60;;;;;;;5.28;71.77;99064.59;5002521;28;20295;-63
2022/12/19 08:17:27;;;;;;;27.83;12.73;;;;;;;5.60;71.44;99048.34;4999163;28;20128;-59
2022/12/19 08:19:54;;;;;;;24.45;12.82;;;;;;;5.80;69.86;99056.44;4994033;28;20116;-62
2022/12/19 08:22:21;;;;;;;24.52;11.95;;;;;;;5.71;69.55;99052.66;5003667;28;20082;-58
2022/12/19 08:24:48;;;;;;;23.75;12.65;;;;;;;6.04;70.62;99049.03;4995023;28;20050;-61
2022/12/19 08:27:16;;;;;;;25.15;13.32;;;;;;;6.31;70.39;99049.28;4990914;28;20500;-63
2022/12/19 08:29:43;;;;;;;27.70;12.55;;;;;;;6.34;70.44;99062.44;5002733;28;20528;-61
2022/12/19 08:32:09;;;;;;;28.90;13.25;;;;;;;6.48;71.85;99052.34;5004088;28;20050;-63
2022/12/19 08:34:42;;;;;;;32.58;13.25;;;;;;;6.64;70.42;99051.03;5005583;28;20483;-62
2022/12/19 08:37:09;;;;;;;29.13;13.60;;;;;;;5.94;70.53;98936.41;4999531;28;20050;-63
2022/12/19 08:39:36;;;;;;;30.75;13.68;;;;;;;6.79;69.59;99050.03;5013836;28;20595;-59
2022/12/19 08:42:03;;;;;;;27.80;14.00;;;;;;;6.90;69.94;99049.59;5005090;28;20229;-62
2022/12/19 08:44:29;;;;;;;24.60;12.18;;;;;;;6.94;68.53;99034.09;5005483;28;20058;-62
2022/12/19 08:46:56;;;;;;;26.73;13.52;;;;;;;7.14;67.65;99055.84;5005321;28;20046;-61
2022/12/19 08:49:23;;;;;;;27.00;12.60;;;;;;;7.19;67.16;99052.97;5005563;28;20116;-59
2022/12/19 08:51:49;;;;;;;35.13;17.63;;;;;;;6.39;68.18;98888.97;5005408;28;20092;-61
2022/12/19 08:54:16;;;;;;;29.48;14.55;;;;;;;7.04;69.06;99044.97;5005979;28;20153;-58
2022/12/19 08:56:43;;;;;;;23.25;12.40;;;;;;;7.22;66.90;99052.38;5005389;28;20568;-60
2022/12/19 08:59:14;;;;;;;23.38;11.73;;;;;;;4.96;67.04;98666.09;5005359;28;20140;-59
2022/12/19 09:01:56;;;;;;;;;;;;;;;6.97;62.95;99050.00;5005740;28;20424;-59
2022/12/19 09:04:22;;;;;;;17.25;7.93;;;;;;;6.35;58.00;99053.09;5004986;28;19936;-62
2022/12/19 09:07:09;;;;;;;11.80;6.03;;;;;;;6.12;56.00;99059.41;5003715;28;20056;-58
2022/12/19 09:09:36;;;;;;;15.77;7.88;;;;;;;4.92;58.29;98906.66;5003506;28;20054;-60
2022/12/19 09:12:02;;;;;;;18.23;8.20;;;;;;;5.90;58.62;99057.16;5003027;28;20061;-58
2022/12/19 09:14:34;;;;;;;16.25;6.15;;;;;;;5.52;57.85;99062.72;5005040;28;20123;-58
2022/12/19 09:17:00;;;;;;;21.60;9.52;;;;;;;5.44;60.24;99049.59;5004331;28;20484;-57
2022/12/19 09:19:30;;;;;;;24.85;10.10;;;;;;;5.61;61.86;99045.31;5004558;28;20061;-60
2022/12/19 09:21:57;;;;;;;29.58;11.38;;;;;;;5.80;60.43;99053.69;5005079;28;20050;-57
2022/12/19 09:24:24;;;;;;;23.58;11.35;;;;;;;5.92;59.82;99048.63;5003637;28;20050;-58
2022/12/19 09:26:51;;;;;;;24.67;10.60;;;;;;;5.68;60.34;99053.22;5004820;28;20049;-57
2022/12/19 09:29:18;;;;;;;25.80;10.98;;;;;;;5.86;57.84;99045.09;5003159;28;20485;-57
2022/12/19 09:31:47;;;;;;;23.27;10.32;;;;;;;5.79;59.01;99038.28;4983042;28;20050;-64
2022/12/19 09:34:27;;;;;;;26.65;11.65;;;;;;;5.37;62.21;99040.88;4983989;28;20583;-60
2022/12/19 09:37:08;;;;;;;26.98;11.07;;;;;;;5.33;61.99;99035.13;4984453;28;20050;-57
2022/12/19 09:39:44;;;;;;;21.40;9.48;;;;;;;5.26;61.37;99044.81;4984274;28;20074;-58
2022/12/19 09:42:34;;;;;;;26.20;11.38;;;;;;;5.70;62.90;99029.84;4984539;28;20718;-59
2022/12/19 09:45:22;;;;;;;27.67;11.85;;;;;;;5.83;62.53;99028.38;4984382;28;20082;-61
2022/12/19 09:47:58;;;;;;;21.45;10.20;;;;;;;5.36;61.10;99011.78;4984603;28;20054;-57
2022/12/19 09:50:31;;;;;;;23.65;11.57;;;;;;;5.60;61.62;99015.38;4984361;28;20736;-60
2022/12/19 09:53:05;;;;;;;22.85;9.23;;;;;;;5.50;61.61;99012.75;4983179;28;20057;-57
2022/12/19 09:55:35;;;;;;;24.95;11.65;;;;;;;5.67;63.40;99011.19;4984902;28;20112;-61
2022/12/19 09:58:20;;;;;;;24.52;10.63;;;;;;;6.26;61.66;99013.56;4984605;28;20053;-58
2022/12/19 10:00:51;;;;;;;20.85;10.32;;;;;;;6.18;62.02;98948.16;4984185;28;20128;-60
2022/12/19 10:03:37;;;;;;;22.70;10.70;;;;;;;6.58;60.40;98999.91;4984601;28;20141;-59
2022/12/19 10:06:22;;;;;;;23.52;11.63;;;;;;;6.71;59.51;99001.94;4997053;28;20060;-58
2022/12/19 10:09:15;;;;;;;24.50;11.45;;;;;;;6.95;58.45;99002.69;5003731;28;20056;-59
2022/12/19 10:12:12;;;;;;;23.10;9.52;;;;;;;3.26;57.67;98531.69;5002554;28;20120;-58
2022/12/19 10:15:03;;;;;;;22.42;10.50;;;;;;;5.60;60.94;98957.66;5002155;28;20567;-61
2022/12/19 10:18:06;;;;;;;32.92;15.80;;;;;;;6.49;61.03;98998.94;5001940;28;20058;-58
2022/12/19 10:20:37;;;;;;;25.38;12.15;;;;;;;6.82;59.04;98997.09;5003280;28;20061;-61
2022/12/19 10:23:31;;;;;;;24.42;12.27;;;;;;;7.21;58.22;98989.28;5003754;28;20140;-61
2022/12/19 10:26:03;;;;;;;25.00;11.82;;;;;;;7.10;57.59;98988.66;5003665;28;20061;-60
2022/12/19 10:28:33;;;;;;;30.23;13.65;;;;;;;7.36;58.04;98976.09;5002675;28;20062;-58
2022/12/19 10:31:09;;;;;;;31.60;14.13;;;;;;;7.49;57.15;98983.56;5017180;28;20542;-61
2022/12/19 10:34:17;;;;;;;28.55;13.05;;;;;;;7.47;57.81;98972.03;5023833;28;20049;-61
2022/12/19 10:36:57;;;;;;;30.95;14.27;;;;;;;7.73;56.59;98970.44;5026118;28;20519;-61
2022/12/19 10:39:53;;;;;;;26.15;12.75;;;;;;;7.63;56.81;98976.13;5026451;28;20064;-58
2022/12/19 10:42:25;;;;;;;24.40;12.48;;;;;;;7.69;55.62;98972.19;5027540;28;20061;-59
2022/12/19 10:44:56;;;;;;;23.20;10.48;;;;;;;7.61;56.02;98972.03;5042568;28;20478;-61
2022/12/19 10:47:24;;;;;;;24.55;12.45;;;;;;;7.62;56.50;98957.94;5027196;28;20049;-58
2022/12/19 10:49:50;;;;;;;23.08;12.02;;;;;;;7.39;55.81;98931.38;5027181;28;20064;-62
2022/12/19 10:52:54;;;;;;;22.05;10.75;;;;;;;7.49;55.81;98961.50;5027456;28;20057;-58
2022/12/19 10:55:45;;;;;;;18.05;9.90;;;;;;;6.79;56.16;98937.91;5026887;28;20055;-60
2022/12/19 10:58:20;;;;;;;37.75;15.48;;;;;;;6.90;58.42;98964.19;5026852;28;20049;-57
2022/12/19 11:00:53;;;;;;;32.63;15.57;;;;;;;7.32;58.39;98953.00;5027146;28;20053;-60
2022/12/19 11:03:20;;;;;;;21.70;11.75;;;;;;;7.53;57.21;98951.50;5026937;28;20124;-61
2022/12/19 11:05:52;;;;;;;21.10;11.10;;;;;;;7.79;55.91;98956.53;5014504;28;20054;-60
2022/12/19 11:08:25;;;;;;;43.63;18.50;;;;;;;7.92;55.58;98950.22;5007600;28;20104;-58
2022/12/19 11:11:07;;;;;;;20.55;10.65;;;;;;;7.63;54.48;98903.63;5005774;28;20054;-60
2022/12/19 11:13:53;;;;;;;21.25;10.25;;;;;;;8.08;54.67;98951.56;5006824;28;20140;-61
2022/12/19 11:16:40;;;;;;;22.05;10.57;;;;;;;7.89;53.95;98917.72;5006637;28;20069;-61
2022/12/19 11:19:34;;;;;;;21.52;10.23;;;;;;;8.08;52.31;98949.59;5006877;28;20512;-61
2022/12/19 11:22:27;;;;;;;16.63;8.68;;;;;;;8.09;51.93;98947.66;5007125;28;20570;-61
2022/12/19 11:25:17;;;;;;;17.90;8.88;;;;;;;8.35;51.84;98944.06;5007279;28;20064;-61
2022/12/19 11:28:15;;;;;;;21.13;8.95;;;;;;;7.71;51.57;98945.06;5006333;28;20567;-62
2022/12/19 11:31:05;;;;;;;25.92;11.82;;;;;;;7.87;53.73;98944.78;5020305;28;20432;-59
2022/12/19 11:34:05;;;;;;;21.55;11.35;;;;;;;8.04;53.22;98936.72;5026242;28;20136;-58
2022/12/19 11:36:53;;;;;;;20.88;10.45;;;;;;;7.76;51.94;98913.00;5026337;28;20049;-61
2022/12/19 11:39:40;;;;;;;15.88;8.98;;;;;;;7.21;51.69;98901.09;5008038;28;20112;-59
2022/12/19 11:42:11;;;;;;;18.20;9.98;;;;;;;8.10;51.96;98932.72;5002011;28;20054;-65
2022/12/19 11:44:57;;;;;;;19.20;8.55;;;;;;;7.30;52.42;98833.94;5000337;28;20050;-58
2022/12/19 11:47:32;;;;;;;20.60;10.38;;;;;;;7.90;54.18;98938.66;4987627;28;20125;-72
2022/12/19 11:50:08;;;;;;;17.17;9.43;;;;;;;6.42;52.93;98868.31;4997599;28;20046;-58
2022/12/19 11:52:45;;;;;;;23.95;11.90;;;;;;;7.04;54.21;98912.72;4991830;28;20054;-64
2022/12/19 11:55:42;;;;;;;22.40;11.05;;;;;;;7.44;54.04;98928.53;5004118;28;20136;-60
2022/12/19 11:58:10;;;;;;;26.40;11.30;;;;;;;7.22;52.99;98925.59;5001323;28;20092;-66